Time;durP1;ratioP1;P1;durP2;ratioP2;P2;SDS_P1;SDS_P2;PMS_P1;PMS_P2;Temp;Humidity;BMP_temperature;BMP_pressure;BME280_temperature;BME280_humidity;BME280_pressure;Samples;Min_cycle;Max_cycle;Signal;HPM_P1;HPM_P2
2024/01/27 00:01:55;;;;;;;10.37;3.63;;;;;;;;;;4976461;28;20244;-70
2024/01/27 00:04:20;;;;;;;13.07;3.63;;;;;;;;;;4973353;28;21226;-71
2024/01/27 00:06:46;;;;;;;9.90;3.73;;;;;;;;;;4969239;28;20742;-70
2024/01/27 00:09:11;;;;;;;11.23;3.60;;;;;;;;;;4980094;28;20227;-70
2024/01/27 00:11:36;;;;;;;14.67;3.83;;;;;;;;;;4977704;28;20232;-71
2024/01/27 00:14:02;;;;;;;10.47;4.07;;;;;;;;;;4978051;28;20232;-69
2024/01/27 00:16:28;;;;;;;13.73;3.90;;;;;;;;;;4980915;28;20239;-70
2024/01/27 00:18:54;;;;;;;10.93;3.80;;;;;;;;;;4986160;28;20646;-71
2024/01/27 00:21:19;;;;;;;11.43;4.00;;;;;;;;;;4983501;28;20222;-71
2024/01/27 00:23:44;;;;;;;13.60;3.80;;;;;;;;;;4982137;28;20223;-70
2024/01/27 00:26:11;;;;;;;11.40;3.80;;;;;;;;;;4983463;28;20330;-70
2024/01/27 00:28:36;;;;;;;13.73;4.13;;;;;;;;;;4981217;28;20237;-71
2024/01/27 00:31:01;;;;;;;11.20;3.73;;;;;;;;;;4982020;28;20227;-71
2024/01/27 00:33:27;;;;;;;10.10;3.47;;;;;;;;;;4979264;28;20235;-69
2024/01/27 00:35:52;;;;;;;9.10;3.70;;;;;;;;;;4985302;28;21014;-71
2024/01/27 00:38:18;;;;;;;10.83;3.70;;;;;;;;;;4985796;28;20748;-70
2024/01/27 00:40:43;;;;;;;9.03;3.30;;;;;;;;;;4985755;28;20227;-71
2024/01/27 00:43:08;;;;;;;9.37;3.30;;;;;;;;;;4984246;28;20232;-71
2024/01/27 00:45:34;;;;;;;11.00;3.90;;;;;;;;;;4985797;28;20235;-70
2024/01/27 00:47:59;;;;;;;7.90;3.30;;;;;;;;;;4985407;28;20231;-71
2024/01/27 00:50:24;;;;;;;12.30;3.47;;;;;;;;;;4964188;28;20223;-70
2024/01/27 00:52:50;;;;;;;12.10;4.10;;;;;;;;;;4984210;28;20311;-70
2024/01/27 00:55:15;;;;;;;9.30;3.77;;;;;;;;;;4983282;28;20281;-71
2024/01/27 00:57:40;;;;;;;10.03;3.67;;;;;;;;;;4982190;28;20216;-70
2024/01/27 01:00:06;;;;;;;12.20;3.70;;;;;;;;;;4981363;28;20223;-71
2024/01/27 01:02:32;;;;;;;13.53;4.00;;;;;;;;;;4968756;28;20235;-71
2024/01/27 01:04:57;;;;;;;9.43;3.60;;;;;;;;;;4988764;28;20238;-70
2024/01/27 01:07:22;;;;;;;8.60;3.73;;;;;;;;;;4991385;28;20236;-69
2024/01/27 01:09:48;;;;;;;10.17;3.20;;;;;;;;;;4988137;28;20255;-70
2024/01/27 01:12:15;;;;;;;9.03;3.20;;;;;;;;;;4981435;28;20231;-72
2024/01/27 01:14:40;;;;;;;9.60;3.30;;;;;;;;;;4979395;28;20223;-71
2024/01/27 01:17:05;;;;;;;8.50;3.13;;;;;;;;;;4976099;28;20294;-71
2024/01/27 01:19:31;;;;;;;13.27;3.30;;;;;;;;;;4978465;28;20227;-70
2024/01/27 01:21:56;;;;;;;11.07;3.30;;;;;;;;;;4963655;28;20270;-70
2024/01/27 01:24:21;;;;;;;10.20;3.20;;;;;;;;;;4999831;28;20262;-70
2024/01/27 01:26:47;;;;;;;7.87;3.20;;;;;;;;;;4985735;28;20712;-71
2024/01/27 01:29:12;;;;;;;9.60;3.50;;;;;;;;;;4974107;28;20334;-71
2024/01/27 01:31:37;;;;;;;12.13;3.17;;;;;;;;;;4986632;28;20258;-71
2024/01/27 01:34:03;;;;;;;12.33;3.70;;;;;;;;;;4984017;28;20224;-71
2024/01/27 01:36:28;;;;;;;11.10;3.70;;;;;;;;;;4987963;28;20811;-71
2024/01/27 01:38:54;;;;;;;11.03;3.70;;;;;;;;;;4983919;28;20254;-70
2024/01/27 01:41:19;;;;;;;10.40;3.50;;;;;;;;;;4981613;28;20223;-71
2024/01/27 01:43:44;;;;;;;12.80;3.47;;;;;;;;;;4984066;28;20224;-70
2024/01/27 01:46:10;;;;;;;9.40;3.20;;;;;;;;;;4978565;28;20235;-72
2024/01/27 01:48:35;;;;;;;7.93;3.37;;;;;;;;;;4985009;28;20231;-70
2024/01/27 01:51:01;;;;;;;9.93;3.40;;;;;;;;;;4982004;28;20311;-70
2024/01/27 01:53:26;;;;;;;8.47;3.00;;;;;;;;;;4982348;28;20317;-70
2024/01/27 01:55:52;;;;;;;9.37;3.30;;;;;;;;;;4997056;28;20227;-69
2024/01/27 01:58:17;;;;;;;7.50;3.20;;;;;;;;;;4958999;28;20235;-71
2024/01/27 02:00:44;;;;;;;10.83;3.50;;;;;;;;;;4981107;28;20224;-71
2024/01/27 02:03:12;;;;;;;12.10;3.60;;;;;;;;;;4983326;28;20326;-72
2024/01/27 02:05:38;;;;;;;7.87;2.97;;;;;;;;;;4982663;28;20344;-70
2024/01/27 02:08:04;;;;;;;12.67;3.40;;;;;;;;;;4979883;28;20729;-69
2024/01/27 02:10:36;;;;;;;13.10;3.20;;;;;;;;;;4989466;28;20223;-71
2024/01/27 02:13:01;;;;;;;9.10;3.20;;;;;;;;;;4984999;28;20229;-71
2024/01/27 02:15:26;;;;;;;13.00;3.27;;;;;;;;;;4982538;28;20605;-70
2024/01/27 02:17:52;;;;;;;9.00;3.03;;;;;;;;;;4975866;28;20337;-70
2024/01/27 02:20:17;;;;;;;10.17;3.10;;;;;;;;;;4980264;28;20224;-71
2024/01/27 02:22:42;;;;;;;11.93;3.20;;;;;;;;;;4982087;28;20231;-70
2024/01/27 02:25:08;;;;;;;11.77;3.27;;;;;;;;;;4981311;28;20236;-70
2024/01/27 02:27:33;;;;;;;8.37;3.23;;;;;;;;;;4982572;28;20227;-74
2024/01/27 02:29:58;;;;;;;8.57;3.00;;;;;;;;;;4988119;28;20227;-75
2024/01/27 02:32:24;;;;;;;6.37;2.90;;;;;;;;;;4963439;28;20232;-75
2024/01/27 02:34:49;;;;;;;7.10;2.80;;;;;;;;;;4981305;28;20306;-75
2024/01/27 02:37:15;;;;;;;13.67;3.83;;;;;;;;;;4981858;28;20239;-75
2024/01/27 02:39:40;;;;;;;10.10;4.00;;;;;;;;;;4981256;28;20218;-75
2024/01/27 02:42:06;;;;;;;12.53;4.20;;;;;;;;;;4980466;28;20253;-74
2024/01/27 02:44:31;;;;;;;12.23;4.30;;;;;;;;;;4968643;28;20216;-75
2024/01/27 02:46:56;;;;;;;12.63;4.00;;;;;;;;;;4981103;28;20378;-75
2024/01/27 02:49:22;;;;;;;13.93;4.53;;;;;;;;;;4974375;28;20250;-75
2024/01/27 02:51:47;;;;;;;11.60;4.10;;;;;;;;;;4978622;28;20893;-75
2024/01/27 02:54:13;;;;;;;13.33;4.00;;;;;;;;;;4982332;28;20219;-75
2024/01/27 02:56:38;;;;;;;17.00;4.57;;;;;;;;;;4968393;28;20236;-75
2024/01/27 02:59:03;;;;;;;13.60;3.87;;;;;;;;;;4982549;28;20310;-75
2024/01/27 03:01:29;;;;;;;16.00;4.17;;;;;;;;;;4978051;28;20362;-75
2024/01/27 03:03:54;;;;;;;12.07;3.93;;;;;;;;;;4978480;28;20219;-76
2024/01/27 03:06:19;;;;;;;12.07;3.90;;;;;;;;;;4977378;28;20238;-75
2024/01/27 03:08:45;;;;;;;15.27;4.07;;;;;;;;;;4986814;28;20642;-75
2024/01/27 03:11:10;;;;;;;9.63;3.60;;;;;;;;;;4985441;28;20632;-75
2024/01/27 03:13:36;;;;;;;9.53;3.63;;;;;;;;;;4979236;28;20321;-76
2024/01/27 03:16:01;;;;;;;10.70;3.60;;;;;;;;;;4983560;28;20278;-74
2024/01/27 03:18:27;;;;;;;12.00;3.80;;;;;;;;;;4977042;28;20220;-74
2024/01/27 03:20:52;;;;;;;11.60;3.57;;;;;;;;;;4974327;28;20258;-74
2024/01/27 03:23:17;;;;;;;11.07;3.40;;;;;;;;;;4977876;28;20987;-75
2024/01/27 03:25:43;;;;;;;7.13;3.07;;;;;;;;;;4963686;28;20240;-75
2024/01/27 03:28:08;;;;;;;10.60;3.10;;;;;;;;;;4979713;28;20230;-75
2024/01/27 03:30:33;;;;;;;9.73;2.53;;;;;;;;;;4970898;28;20766;-75
2024/01/27 03:32:59;;;;;;;10.40;2.97;;;;;;;;;;4980287;28;20235;-75
2024/01/27 03:35:24;;;;;;;7.83;2.60;;;;;;;;;;4980662;28;20238;-76
2024/01/27 03:37:51;;;;;;;10.53;2.73;;;;;;;;;;4980400;28;20855;-75
2024/01/27 03:40:16;;;;;;;6.17;2.60;;;;;;;;;;4977070;28;20224;-75
2024/01/27 03:42:41;;;;;;;10.10;2.70;;;;;;;;;;4977478;28;20704;-75
2024/01/27 03:45:07;;;;;;;8.83;2.57;;;;;;;;;;4979998;28;20231;-74
2024/01/27 03:47:32;;;;;;;8.63;2.87;;;;;;;;;;4994126;28;20251;-75
2024/01/27 03:49:58;;;;;;;6.97;2.50;;;;;;;;;;4980916;28;20350;-74
2024/01/27 03:52:25;;;;;;;6.93;2.63;;;;;;;;;;4982535;28;20377;-75
2024/01/27 03:54:51;;;;;;;6.67;2.40;;;;;;;;;;4981024;28;20223;-75
2024/01/27 03:57:16;;;;;;;6.43;2.50;;;;;;;;;;4980428;28;20224;-75
2024/01/27 03:59:41;;;;;;;6.67;2.37;;;;;;;;;;4979010;28;20235;-75
2024/01/27 04:02:07;;;;;;;5.70;2.50;;;;;;;;;;4977611;28;20250;-74
2024/01/27 04:04:32;;;;;;;6.17;2.30;;;;;;;;;;4981300;28;20249;-75
2024/01/27 04:06:57;;;;;;;10.10;3.10;;;;;;;;;;4984667;28;20756;-75
2024/01/27 04:09:23;;;;;;;7.10;2.37;;;;;;;;;;4982233;28;20227;-74
2024/01/27 04:11:49;;;;;;;6.10;2.50;;;;;;;;;;4980888;28;20638;-73
2024/01/27 04:14:14;;;;;;;7.30;2.30;;;;;;;;;;4986325;28;20232;-75
2024/01/27 04:16:39;;;;;;;5.93;2.43;;;;;;;;;;4982867;28;20296;-70
2024/01/27 04:19:05;;;;;;;7.03;2.30;;;;;;;;;;4978624;28;20236;-71
2024/01/27 04:21:30;;;;;;;7.20;2.43;;;;;;;;;;4968615;28;20708;-71
2024/01/27 04:23:56;;;;;;;8.97;2.60;;;;;;;;;;4979534;28;20620;-70
2024/01/27 04:26:21;;;;;;;7.00;2.63;;;;;;;;;;4977059;28;20623;-70
2024/01/27 04:28:46;;;;;;;7.77;2.60;;;;;;;;;;4966920;28;20618;-70
2024/01/27 04:31:12;;;;;;;6.07;2.50;;;;;;;;;;4977412;28;20868;-70
2024/01/27 04:33:37;;;;;;;5.80;2.80;;;;;;;;;;4976759;28;20223;-71
2024/01/27 04:36:02;;;;;;;6.33;2.50;;;;;;;;;;4980650;28;20307;-70
2024/01/27 04:38:28;;;;;;;7.47;2.60;;;;;;;;;;4980463;28;20234;-69
2024/01/27 04:40:53;;;;;;;7.57;2.53;;;;;;;;;;4980488;28;20254;-70
2024/01/27 04:43:20;;;;;;;7.07;2.53;;;;;;;;;;4980502;28;20231;-70
2024/01/27 04:45:45;;;;;;;7.77;2.50;;;;;;;;;;4977063;28;20231;-70
2024/01/27 04:48:11;;;;;;;5.87;2.70;;;;;;;;;;4969160;28;20819;-70
2024/01/27 04:50:36;;;;;;;6.00;2.70;;;;;;;;;;4982168;28;20231;-71
2024/01/27 04:53:01;;;;;;;8.27;2.70;;;;;;;;;;4979271;28;20227;-71
2024/01/27 04:55:27;;;;;;;7.33;2.97;;;;;;;;;;4979071;28;20219;-71
2024/01/27 04:57:53;;;;;;;8.43;2.50;;;;;;;;;;4965521;28;20755;-71
2024/01/27 05:00:18;;;;;;;7.00;2.70;;;;;;;;;;4980883;28;20666;-69
2024/01/27 05:02:44;;;;;;;6.33;2.70;;;;;;;;;;4977417;28;20240;-70
2024/01/27 05:05:10;;;;;;;8.27;2.70;;;;;;;;;;4981161;28;20238;-70
2024/01/27 05:07:35;;;;;;;4.90;2.40;;;;;;;;;;4986571;28;20232;-70
2024/01/27 05:10:01;;;;;;;6.23;2.67;;;;;;;;;;4982480;28;20227;-72
2024/01/27 05:12:26;;;;;;;9.60;3.00;;;;;;;;;;4962570;28;21276;-71
2024/01/27 05:14:51;;;;;;;7.47;3.07;;;;;;;;;;4981353;28;20648;-71
2024/01/27 05:17:17;;;;;;;7.83;2.80;;;;;;;;;;4979595;28;20721;-71
2024/01/27 05:19:42;;;;;;;5.77;2.70;;;;;;;;;;4980988;28;20668;-70
2024/01/27 05:22:07;;;;;;;7.67;2.70;;;;;;;;;;4984400;28;20228;-70
2024/01/27 05:24:33;;;;;;;7.87;2.90;;;;;;;;;;4998093;28;20254;-70
2024/01/27 05:26:58;;;;;;;6.73;2.60;;;;;;;;;;4982320;28;20235;-74
2024/01/27 05:29:24;;;;;;;7.20;2.80;;;;;;;;;;4980325;28;20700;-74
2024/01/27 05:31:49;;;;;;;12.77;4.93;;;;;;;;;;4980925;28;21158;-74
2024/01/27 05:34:14;;;;;;;11.17;4.83;;;;;;;;;;4986367;28;20253;-74
2024/01/27 05:36:40;;;;;;;11.30;4.10;;;;;;;;;;4982020;28;20231;-73
2024/01/27 05:39:06;;;;;;;10.97;3.90;;;;;;;;;;4985187;28;20224;-73
2024/01/27 05:41:31;;;;;;;9.50;3.87;;;;;;;;;;4984673;28;20294;-74
2024/01/27 05:43:57;;;;;;;8.90;3.57;;;;;;;;;;4982955;28;20227;-73
2024/01/27 05:46:23;;;;;;;9.83;3.80;;;;;;;;;;4980012;28;21158;-73
2024/01/27 05:48:50;;;;;;;10.43;4.10;;;;;;;;;;4978398;28;20228;-74
2024/01/27 05:51:16;;;;;;;11.67;4.03;;;;;;;;;;4977592;28;20250;-74
2024/01/27 05:53:41;;;;;;;11.23;4.03;;;;;;;;;;4983620;28;20258;-73
2024/01/27 05:56:06;;;;;;;11.63;3.90;;;;;;;;;;4981770;28;20224;-73
2024/01/27 05:58:32;;;;;;;10.20;3.60;;;;;;;;;;4984319;28;20235;-74
2024/01/27 06:00:57;;;;;;;12.07;3.73;;;;;;;;;;4983292;28;20237;-73
2024/01/27 06:03:22;;;;;;;12.13;3.93;;;;;;;;;;4986284;28;20287;-73
2024/01/27 06:05:47;;;;;;;9.70;3.57;;;;;;;;;;4978389;28;20242;-73
2024/01/27 06:08:13;;;;;;;11.87;4.47;;;;;;;;;;4983112;28;20235;-74
2024/01/27 06:10:38;;;;;;;11.50;4.17;;;;;;;;;;4982590;28;20223;-74
2024/01/27 06:13:03;;;;;;;11.10;4.57;;;;;;;;;;4979853;28;20235;-75
2024/01/27 06:15:29;;;;;;;15.70;4.23;;;;;;;;;;4985719;28;20310;-75
2024/01/27 06:17:54;;;;;;;15.80;4.83;;;;;;;;;;4981417;28;20244;-76
2024/01/27 06:20:19;;;;;;;11.60;4.40;;;;;;;;;;4982490;28;20302;-76
2024/01/27 06:22:45;;;;;;;11.13;4.33;;;;;;;;;;4985203;28;20262;-76
2024/01/27 06:25:10;;;;;;;11.87;4.53;;;;;;;;;;4977671;28;20236;-72
2024/01/27 06:27:37;;;;;;;8.77;4.20;;;;;;;;;;4980828;28;20322;-70
2024/01/27 06:30:03;;;;;;;15.93;5.10;;;;;;;;;;4959254;28;20837;-70
2024/01/27 06:32:29;;;;;;;12.83;4.63;;;;;;;;;;4963802;28;20321;-69
2024/01/27 06:34:54;;;;;;;12.03;4.80;;;;;;;;;;4981146;28;20271;-70
2024/01/27 06:37:19;;;;;;;14.23;4.90;;;;;;;;;;4983280;28;20326;-70
2024/01/27 06:39:45;;;;;;;13.50;4.50;;;;;;;;;;4982992;28;20806;-70
2024/01/27 06:42:10;;;;;;;10.67;4.40;;;;;;;;;;4983546;28;20243;-71
2024/01/27 06:44:35;;;;;;;9.80;4.20;;;;;;;;;;4981138;28;20697;-71
2024/01/27 06:47:00;;;;;;;11.87;4.10;;;;;;;;;;4983146;28;20327;-71
2024/01/27 06:49:26;;;;;;;10.00;3.53;;;;;;;;;;4977886;28;20243;-70
2024/01/27 06:51:51;;;;;;;9.20;2.90;;;;;;;;;;4981578;28;20231;-71
2024/01/27 06:54:16;;;;;;;5.13;2.10;;;;;;;;;;4976822;28;20261;-71
2024/01/27 06:56:42;;;;;;;6.37;2.50;;;;;;;;;;4987138;28;20666;-71
2024/01/27 06:59:07;;;;;;;5.10;2.20;;;;;;;;;;4982834;28;20215;-72
2024/01/27 07:01:32;;;;;;;4.60;2.13;;;;;;;;;;4981505;28;20238;-70
2024/01/27 07:03:58;;;;;;;3.07;1.77;;;;;;;;;;4985477;28;20250;-70
2024/01/27 07:06:23;;;;;;;5.40;2.00;;;;;;;;;;4983975;28;20239;-71
2024/01/27 07:08:48;;;;;;;2.87;1.90;;;;;;;;;;4995944;28;20997;-71
2024/01/27 07:11:13;;;;;;;4.20;1.93;;;;;;;;;;4983045;28;20463;-71
2024/01/27 07:13:39;;;;;;;3.53;2.20;;;;;;;;;;4983079;28;20227;-70
2024/01/27 07:16:05;;;;;;;4.33;2.23;;;;;;;;;;4980879;28;20254;-72
2024/01/27 07:18:30;;;;;;;3.00;1.90;;;;;;;;;;4982095;28;20251;-70
2024/01/27 07:20:55;;;;;;;3.00;1.90;;;;;;;;;;4980896;28;20282;-72
2024/01/27 07:23:21;;;;;;;3.73;2.10;;;;;;;;;;4982003;28;20787;-71
2024/01/27 07:25:46;;;;;;;3.67;2.17;;;;;;;;;;4979257;28;20236;-70
2024/01/27 07:28:12;;;;;;;4.83;2.10;;;;;;;;;;4977273;28;20227;-71
2024/01/27 07:30:40;;;;;;;3.40;2.10;;;;;;;;;;4973985;28;20235;-70
2024/01/27 07:33:06;;;;;;;3.87;2.37;;;;;;;;;;4977421;28;20251;-71
2024/01/27 07:35:31;;;;;;;5.47;2.20;;;;;;;;;;4978652;28;20255;-70
2024/01/27 07:37:57;;;;;;;4.37;2.20;;;;;;;;;;4979810;28;20246;-73
2024/01/27 07:40:22;;;;;;;5.90;2.50;;;;;;;;;;4977483;28;20311;-71
2024/01/27 07:42:47;;;;;;;5.37;2.20;;;;;;;;;;4974389;28;20235;-70
2024/01/27 07:45:13;;;;;;;4.77;2.03;;;;;;;;;;4983509;28;20243;-72
2024/01/27 07:47:38;;;;;;;5.77;2.20;;;;;;;;;;4964699;28;20686;-70
2024/01/27 07:50:04;;;;;;;4.77;2.40;;;;;;;;;;4986223;28;20289;-71
2024/01/27 07:52:30;;;;;;;5.40;2.73;;;;;;;;;;4982327;28;20258;-70
2024/01/27 07:54:55;;;;;;;5.17;2.30;;;;;;;;;;4980763;28;20862;-70
2024/01/27 07:57:21;;;;;;;4.90;2.70;;;;;;;;;;4977510;28;20285;-72
2024/01/27 07:59:46;;;;;;;4.37;2.37;;;;;;;;;;4975633;28;20748;-71
2024/01/27 08:02:11;;;;;;;5.53;3.00;;;;;;;;;;4978628;28;20289;-72
2024/01/27 08:04:37;;;;;;;5.87;2.60;;;;;;;;;;4978243;28;20223;-72
2024/01/27 08:07:09;;;;;;;4.07;2.60;;;;;;;;;;4979808;28;20243;-73
2024/01/27 08:09:34;;;;;;;4.30;2.93;;;;;;;;;;4961736;28;20257;-73
2024/01/27 08:12:00;;;;;;;4.07;2.90;;;;;;;;;;4976703;28;20230;-72
2024/01/27 08:14:25;;;;;;;6.03;2.80;;;;;;;;;;4995040;28;20231;-74
2024/01/27 08:16:51;;;;;;;5.17;3.10;;;;;;;;;;4976373;28;20239;-72
2024/01/27 08:19:20;;;;;;;5.60;3.00;;;;;;;;;;4974158;28;20271;-73
2024/01/27 08:21:45;;;;;;;4.07;2.90;;;;;;;;;;4981900;28;20664;-73
2024/01/27 08:24:11;;;;;;;5.17;3.00;;;;;;;;;;4977375;28;20220;-75
2024/01/27 08:26:36;;;;;;;5.77;3.00;;;;;;;;;;4963842;28;20247;-72
2024/01/27 08:29:01;;;;;;;6.27;3.60;;;;;;;;;;4980913;28;20227;-73
2024/01/27 08:31:27;;;;;;;6.07;3.57;;;;;;;;;;4978834;28;21155;-73
2024/01/27 08:33:52;;;;;;;6.77;3.70;;;;;;;;;;4979436;28;20219;-73
2024/01/27 08:36:17;;;;;;;5.50;3.20;;;;;;;;;;4988894;28;20254;-72
2024/01/27 08:38:43;;;;;;;4.90;3.10;;;;;;;;;;4982013;28;20363;-72
2024/01/27 08:41:08;;;;;;;7.33;3.37;;;;;;;;;;4978649;28;20235;-72
2024/01/27 08:43:33;;;;;;;5.17;3.30;;;;;;;;;;4979441;28;20231;-74
2024/01/27 08:46:00;;;;;;;7.30;3.30;;;;;;;;;;4976484;28;20658;-72
2024/01/27 08:48:25;;;;;;;5.73;3.20;;;;;;;;;;4980611;28;20231;-73
2024/01/27 08:50:51;;;;;;;4.27;2.97;;;;;;;;;;4970497;28;20230;-71
2024/01/27 08:53:16;;;;;;;7.00;3.10;;;;;;;;;;4976758;28;20705;-70
2024/01/27 08:55:41;;;;;;;6.83;3.00;;;;;;;;;;4994862;28;20223;-73
2024/01/27 08:58:07;;;;;;;6.90;2.90;;;;;;;;;;4981499;28;20254;-75
2024/01/27 09:00:32;;;;;;;4.27;2.87;;;;;;;;;;4982758;28;20678;-73
2024/01/27 09:02:58;;;;;;;6.27;2.93;;;;;;;;;;4981701;28;20243;-72
2024/01/27 09:05:23;;;;;;;4.43;2.50;;;;;;;;;;4984476;28;20238;-73
2024/01/27 09:07:48;;;;;;;8.03;2.87;;;;;;;;;;4968639;28;20235;-72
2024/01/27 09:10:15;;;;;;;4.67;3.00;;;;;;;;;;4984253;28;20227;-72
2024/01/27 09:12:41;;;;;;;4.67;2.37;;;;;;;;;;4982836;28;20923;-74
2024/01/27 09:15:07;;;;;;;7.77;2.50;;;;;;;;;;4991066;28;20231;-73
2024/01/27 09:17:32;;;;;;;5.53;2.40;;;;;;;;;;4973254;28;20236;-74
2024/01/27 09:19:57;;;;;;;6.00;2.67;;;;;;;;;;4985151;28;20301;-72
2024/01/27 09:22:23;;;;;;;6.63;2.77;;;;;;;;;;4969063;28;20242;-72
2024/01/27 09:24:48;;;;;;;5.83;2.47;;;;;;;;;;4985928;28;20766;-74
2024/01/27 09:27:14;;;;;;;3.70;2.43;;;;;;;;;;4984172;28;20247;-74
2024/01/27 09:29:39;;;;;;;5.40;2.63;;;;;;;;;;4982336;28;20235;-72
2024/01/27 09:32:04;;;;;;;5.40;2.50;;;;;;;;;;4983035;28;20231;-73
2024/01/27 09:34:30;;;;;;;4.63;2.30;;;;;;;;;;4983426;28;20241;-72
2024/01/27 09:36:55;;;;;;;5.10;2.60;;;;;;;;;;4985300;28;20770;-72
2024/01/27 09:39:20;;;;;;;5.83;2.40;;;;;;;;;;4980107;28;20798;-73
2024/01/27 09:41:46;;;;;;;4.67;2.50;;;;;;;;;;4982048;28;20307;-75
2024/01/27 09:44:12;;;;;;;5.90;2.90;;;;;;;;;;4979308;28;20223;-72
2024/01/27 09:46:37;;;;;;;5.83;2.53;;;;;;;;;;4979779;28;20235;-74
2024/01/27 09:49:02;;;;;;;5.20;2.90;;;;;;;;;;4962294;28;20254;-75
2024/01/27 09:51:27;;;;;;;6.47;3.00;;;;;;;;;;4982817;28;20223;-72
2024/01/27 09:53:53;;;;;;;7.30;2.40;;;;;;;;;;4982690;28;20301;-71
2024/01/27 09:56:20;;;;;;;4.50;2.20;;;;;;;;;;4971067;28;20302;-71
2024/01/27 09:58:45;;;;;;;4.20;2.50;;;;;;;;;;4969760;28;20257;-73
2024/01/27 10:01:11;;;;;;;3.07;2.23;;;;;;;;;;4981243;28;21009;-75
2024/01/27 10:03:37;;;;;;;6.87;2.40;;;;;;;;;;4981722;28;20243;-74
2024/01/27 10:06:02;;;;;;;5.40;2.70;;;;;;;;;;4979981;28;20236;-74
2024/01/27 10:08:27;;;;;;;5.77;2.63;;;;;;;;;;4982899;28;20265;-74
2024/01/27 10:10:58;;;;;;;3.80;2.67;;;;;;;;;;4983989;28;20228;-74
2024/01/27 10:13:27;;;;;;;6.30;2.67;;;;;;;;;;4983403;28;20735;-74
2024/01/27 10:16:02;;;;;;;6.50;2.43;;;;;;;;;;4984703;28;20293;-75
2024/01/27 10:18:28;;;;;;;5.00;2.40;;;;;;;;;;4982989;28;20230;-76
2024/01/27 10:20:53;;;;;;;3.93;2.50;;;;;;;;;;4985032;28;20288;-77
2024/01/27 10:23:19;;;;;;;3.57;2.40;;;;;;;;;;4982175;28;20223;-74
2024/01/27 10:25:44;;;;;;;4.90;2.23;;;;;;;;;;4987860;28;20518;-76
2024/01/27 10:28:09;;;;;;;5.33;2.40;;;;;;;;;;4997981;28;20231;-75
2024/01/27 10:30:35;;;;;;;4.87;2.60;;;;;;;;;;4981210;28;20616;-74
2024/01/27 10:33:01;;;;;;;5.20;2.40;;;;;;;;;;4980867;28;20238;-73
2024/01/27 10:35:26;;;;;;;6.00;2.60;;;;;;;;;;4979858;28;20228;-72
2024/01/27 10:37:52;;;;;;;5.20;2.40;;;;;;;;;;4986687;28;20306;-73
2024/01/27 10:40:18;;;;;;;6.00;2.63;;;;;;;;;;4972677;28;20230;-74
2024/01/27 10:42:43;;;;;;;4.63;2.30;;;;;;;;;;4996302;28;20223;-71
2024/01/27 10:45:09;;;;;;;3.90;2.47;;;;;;;;;;4980360;28;20752;-71
2024/01/27 10:47:34;;;;;;;4.40;2.80;;;;;;;;;;4978942;28;20746;-73
2024/01/27 10:50:00;;;;;;;6.77;2.60;;;;;;;;;;4968535;28;20655;-73
2024/01/27 10:52:29;;;;;;;4.63;2.70;;;;;;;;;;4981713;28;20227;-72
2024/01/27 10:54:58;;;;;;;5.83;2.60;;;;;;;;;;4982938;28;20223;-72
2024/01/27 10:57:24;;;;;;;2.50;2.20;;;;;;;;;;4981313;28;20250;-71
2024/01/27 10:59:49;;;;;;;6.17;2.83;;;;;;;;;;4979253;28;20705;-72
2024/01/27 11:02:15;;;;;;;4.40;2.77;;;;;;;;;;4996287;28;20232;-73
2024/01/27 11:04:40;;;;;;;5.63;2.83;;;;;;;;;;4985447;28;20231;-72
2024/01/27 11:07:07;;;;;;;6.13;2.60;;;;;;;;;;4981064;28;20286;-71
2024/01/27 11:09:32;;;;;;;3.03;2.40;;;;;;;;;;4981822;28;20219;-72
2024/01/27 11:11:58;;;;;;;4.37;2.50;;;;;;;;;;4981540;28;21055;-72
2024/01/27 11:14:23;;;;;;;4.13;2.50;;;;;;;;;;4991143;28;20232;-72
2024/01/27 11:16:54;;;;;;;6.00;2.63;;;;;;;;;;4982818;28;20235;-73
2024/01/27 11:19:20;;;;;;;4.67;2.83;;;;;;;;;;4981687;28;20231;-72
2024/01/27 11:21:45;;;;;;;5.13;3.20;;;;;;;;;;4996179;28;20227;-73
2024/01/27 11:24:17;;;;;;;6.37;3.70;;;;;;;;;;4983471;28;20228;-73
2024/01/27 11:26:42;;;;;;;4.90;2.60;;;;;;;;;;4978377;28;20728;-72
2024/01/27 11:29:19;;;;;;;4.23;2.90;;;;;;;;;;4962551;28;20219;-72
2024/01/27 11:31:44;;;;;;;4.23;2.97;;;;;;;;;;4981784;28;20259;-72
2024/01/27 11:34:12;;;;;;;5.30;3.10;;;;;;;;;;4982799;28;20319;-73
2024/01/27 11:36:37;;;;;;;5.27;3.30;;;;;;;;;;4989007;28;20681;-73
2024/01/27 11:39:03;;;;;;;5.10;3.20;;;;;;;;;;4990591;28;20329;-72
2024/01/27 11:41:29;;;;;;;6.30;3.10;;;;;;;;;;4979269;28;20228;-73
2024/01/27 11:43:55;;;;;;;4.57;3.07;;;;;;;;;;4982981;28;20231;-71
2024/01/27 11:46:20;;;;;;;7.40;3.30;;;;;;;;;;4979304;28;20254;-73
2024/01/27 11:48:45;;;;;;;5.13;3.43;;;;;;;;;;4981952;28;20225;-73
2024/01/27 11:51:11;;;;;;;4.63;3.37;;;;;;;;;;4994994;28;20246;-72
2024/01/27 11:53:36;;;;;;;6.20;3.30;;;;;;;;;;4976416;28;20324;-73
2024/01/27 11:56:03;;;;;;;6.50;3.27;;;;;;;;;;4982480;28;20315;-73
2024/01/27 11:58:29;;;;;;;6.80;3.27;;;;;;;;;;4972025;28;20641;-72
2024/01/27 12:00:55;;;;;;;3.63;2.67;;;;;;;;;;4977349;28;20228;-72
2024/01/27 12:03:20;;;;;;;4.87;2.60;;;;;;;;;;4979871;28;20224;-73
2024/01/27 12:05:45;;;;;;;4.63;3.10;;;;;;;;;;4979139;28;20314;-72
2024/01/27 12:08:11;;;;;;;8.40;3.40;;;;;;;;;;4976748;28;20240;-73
2024/01/27 12:10:36;;;;;;;5.93;3.50;;;;;;;;;;4979500;28;20228;-72
2024/01/27 12:13:02;;;;;;;5.97;3.47;;;;;;;;;;4969331;28;20232;-72
2024/01/27 12:15:28;;;;;;;8.27;3.50;;;;;;;;;;4985247;28;20237;-72
2024/01/27 12:17:54;;;;;;;5.40;3.10;;;;;;;;;;4981743;28;20267;-72
2024/01/27 12:20:20;;;;;;;8.70;3.50;;;;;;;;;;4983327;28;21073;-72
2024/01/27 12:22:45;;;;;;;5.20;2.80;;;;;;;;;;4965776;28;20237;-71
2024/01/27 12:25:12;;;;;;;5.67;2.87;;;;;;;;;;4979264;28;20664;-72
2024/01/27 12:27:38;;;;;;;4.90;3.00;;;;;;;;;;4980565;28;20285;-72
2024/01/27 12:30:04;;;;;;;4.63;2.83;;;;;;;;;;4983651;28;20223;-72
2024/01/27 12:32:30;;;;;;;5.03;2.90;;;;;;;;;;4982911;28;20230;-72
2024/01/27 12:34:55;;;;;;;4.60;2.90;;;;;;;;;;4987252;28;20227;-74
2024/01/27 12:37:21;;;;;;;4.23;2.70;;;;;;;;;;4992021;28;20791;-72
2024/01/27 12:39:46;;;;;;;4.07;2.40;;;;;;;;;;5003287;28;20227;-73
2024/01/27 12:42:12;;;;;;;3.43;2.30;;;;;;;;;;4985231;28;20313;-73
2024/01/27 12:44:37;;;;;;;4.23;2.63;;;;;;;;;;4995745;28;20219;-73
2024/01/27 12:47:03;;;;;;;3.87;2.50;;;;;;;;;;4988939;28;20242;-73
2024/01/27 12:49:29;;;;;;;4.47;2.77;;;;;;;;;;4982106;28;20707;-73
2024/01/27 12:51:54;;;;;;;5.60;2.83;;;;;;;;;;4985292;28;20744;-72
2024/01/27 12:54:20;;;;;;;4.17;2.50;;;;;;;;;;4986016;28;20911;-73
2024/01/27 12:56:45;;;;;;;4.67;2.70;;;;;;;;;;4985142;28;20269;-72
2024/01/27 12:59:11;;;;;;;5.87;2.90;;;;;;;;;;4984926;28;20224;-72
2024/01/27 13:01:37;;;;;;;6.60;2.73;;;;;;;;;;4987863;28;20700;-73
2024/01/27 13:04:02;;;;;;;3.67;2.60;;;;;;;;;;4966120;28;20882;-72
2024/01/27 13:06:27;;;;;;;5.90;2.97;;;;;;;;;;5001446;28;20231;-72
2024/01/27 13:08:54;;;;;;;5.47;2.53;;;;;;;;;;4985706;28;20290;-73
2024/01/27 13:11:19;;;;;;;4.43;2.40;;;;;;;;;;5001071;28;20236;-72
2024/01/27 13:13:45;;;;;;;6.63;2.57;;;;;;;;;;4985971;28;20245;-72
2024/01/27 13:16:10;;;;;;;6.20;2.60;;;;;;;;;;4985129;28;20258;-73
2024/01/27 13:18:36;;;;;;;5.40;2.40;;;;;;;;;;4988651;28;20223;-72
2024/01/27 13:21:01;;;;;;;3.23;2.30;;;;;;;;;;4968834;28;20234;-72
2024/01/27 13:23:26;;;;;;;3.83;2.37;;;;;;;;;;4969273;28;20218;-73
2024/01/27 13:25:52;;;;;;;4.07;2.40;;;;;;;;;;4986393;28;20255;-72
2024/01/27 13:28:17;;;;;;;5.67;2.40;;;;;;;;;;4986595;28;20235;-73
2024/01/27 13:30:42;;;;;;;3.13;2.20;;;;;;;;;;4977497;28;20235;-73
2024/01/27 13:33:08;;;;;;;4.93;2.50;;;;;;;;;;5002437;28;20220;-73
2024/01/27 13:35:33;;;;;;;3.80;2.30;;;;;;;;;;4987729;28;20231;-72
2024/01/27 13:37:58;;;;;;;4.77;2.30;;;;;;;;;;4986221;28;20227;-72
2024/01/27 13:40:24;;;;;;;4.83;2.40;;;;;;;;;;4985452;28;20737;-72
2024/01/27 13:42:49;;;;;;;4.87;2.20;;;;;;;;;;4984841;28;20352;-72
2024/01/27 13:45:14;;;;;;;4.00;2.37;;;;;;;;;;4978023;28;20742;-72
2024/01/27 13:47:40;;;;;;;3.27;2.30;;;;;;;;;;4980129;28;20262;-74
2024/01/27 13:50:06;;;;;;;3.93;2.40;;;;;;;;;;4982292;28;20290;-73
2024/01/27 13:52:31;;;;;;;7.03;2.80;;;;;;;;;;4982633;28;20372;-72
2024/01/27 13:54:57;;;;;;;4.23;2.40;;;;;;;;;;4981965;28;20701;-71
2024/01/27 13:57:22;;;;;;;4.17;2.50;;;;;;;;;;4996739;28;20244;-72
2024/01/27 13:59:47;;;;;;;4.93;2.10;;;;;;;;;;4982126;28;20235;-73
2024/01/27 14:02:13;;;;;;;5.53;2.40;;;;;;;;;;4980714;28;20661;-75
2024/01/27 14:04:38;;;;;;;5.57;2.30;;;;;;;;;;4983428;28;20219;-72
2024/01/27 14:07:06;;;;;;;4.33;2.37;;;;;;;;;;4983665;28;20623;-72
2024/01/27 14:09:32;;;;;;;7.37;2.90;;;;;;;;;;4981083;28;20220;-72
2024/01/27 14:11:57;;;;;;;6.10;2.40;;;;;;;;;;4981386;28;20737;-71
2024/01/27 14:14:23;;;;;;;7.03;3.10;;;;;;;;;;4980835;28;20235;-72
2024/01/27 14:16:48;;;;;;;7.23;3.10;;;;;;;;;;4997739;28;20235;-72
2024/01/27 14:19:13;;;;;;;8.17;3.40;;;;;;;;;;4985459;28;20514;-71
2024/01/27 14:21:39;;;;;;;8.57;3.30;;;;;;;;;;4968391;28;20723;-72
2024/01/27 14:24:06;;;;;;;12.80;3.00;;;;;;;;;;4985832;28;20289;-72
2024/01/27 14:26:31;;;;;;;7.17;2.83;;;;;;;;;;4974450;28;20814;-73
2024/01/27 14:28:57;;;;;;;10.30;3.20;;;;;;;;;;4979648;28;20255;-72
2024/01/27 14:31:22;;;;;;;8.37;3.30;;;;;;;;;;4980155;28;20277;-71